Time;durP1;ratioP1;P1;durP2;ratioP2;P2;SDS_P1;SDS_P2;PMS_P1;PMS_P2;Temp;Humidity;BMP_temperature;BMP_pressure;BME280_temperature;BME280_humidity;BME280_pressure;Samples;Min_cycle;Max_cycle;Signal;HPM_P1;HPM_P2
2023/05/13 00:01:06;;;;;;;1999.90;999.90;;;10.90;99.90;;;;;;5036284;28;20026;-73
2023/05/13 00:03:32;;;;;;;1999.90;999.90;;;10.90;99.90;;;;;;5036106;28;20029;-73
2023/05/13 00:05:57;;;;;;;1999.90;999.90;;;10.90;99.90;;;;;;5036407;28;20025;-73
2023/05/13 00:08:23;;;;;;;1999.90;999.90;;;10.80;99.90;;;;;;5036483;28;20033;-76
2023/05/13 00:10:49;;;;;;;1999.90;999.90;;;10.80;99.90;;;;;;5051152;28;20112;-73
2023/05/13 00:13:14;;;;;;;1999.90;999.90;;;10.80;99.90;;;;;;5035380;28;20033;-77
2023/05/13 00:15:40;;;;;;;1999.90;999.90;;;10.80;99.90;;;;;;5035640;28;20061;-77
2023/05/13 00:18:06;;;;;;;1999.90;999.90;;;10.70;99.90;;;;;;5036014;28;20028;-73
2023/05/13 00:20:32;;;;;;;1999.90;999.90;;;10.70;99.90;;;;;;5035896;28;20028;-73
2023/05/13 00:22:57;;;;;;;1999.90;999.90;;;10.70;99.90;;;;;;5036300;28;20029;-77
2023/05/13 00:25:23;;;;;;;1999.90;999.90;;;10.70;99.90;;;;;;5035839;28;20045;-77
2023/05/13 00:27:49;;;;;;;1999.90;999.90;;;10.70;99.90;;;;;;5036134;28;20033;-77
2023/05/13 00:30:14;;;;;;;1999.90;999.90;;;10.70;99.90;;;;;;5035730;28;20497;-77
2023/05/13 00:32:40;;;;;;;1999.90;999.90;;;10.60;99.90;;;;;;5034978;28;20105;-73
2023/05/13 00:35:06;;;;;;;1999.90;999.90;;;10.60;99.90;;;;;;5035644;28;20504;-77
2023/05/13 00:37:31;;;;;;;1999.90;999.90;;;10.50;99.90;;;;;;5035821;28;20056;-73
2023/05/13 00:39:57;;;;;;;1999.90;999.90;;;10.50;99.90;;;;;;5035801;28;20033;-73
2023/05/13 00:42:23;;;;;;;1999.90;999.90;;;10.50;99.90;;;;;;5035520;28;20021;-73
2023/05/13 00:44:48;;;;;;;1999.90;999.90;;;10.50;99.90;;;;;;5035488;28;20220;-73
2023/05/13 00:47:15;;;;;;;1999.90;999.90;;;10.50;99.90;;;;;;5035455;28;20503;-73
2023/05/13 00:49:41;;;;;;;1999.90;999.90;;;10.40;99.90;;;;;;5035614;28;20033;-77
2023/05/13 00:52:07;;;;;;;1999.90;999.90;;;10.40;99.90;;;;;;5034399;28;20052;-77
2023/05/13 00:54:32;;;;;;;1999.90;999.90;;;10.40;99.90;;;;;;5033470;28;20030;-77
2023/05/13 00:56:59;;;;;;;1999.90;999.90;;;10.40;99.90;;;;;;5035574;28;20045;-73
2023/05/13 00:59:27;;;;;;;1999.90;999.90;;;10.40;99.90;;;;;;5035562;28;20080;-73
2023/05/13 01:01:56;;;;;;;1999.90;999.90;;;10.30;99.90;;;;;;5035092;28;20056;-76
2023/05/13 01:04:45;;;;;;;1999.90;999.90;;;10.30;99.90;;;;;;5035192;28;20047;-77
2023/05/13 01:07:24;;;;;;;1999.90;999.90;;;10.20;99.90;;;;;;5035161;28;20037;-73
2023/05/13 01:10:22;;;;;;;1999.90;999.90;;;10.20;99.90;;;;;;5015877;28;20030;-73
2023/05/13 01:12:53;;;;;;;1999.90;999.90;;;10.20;99.90;;;;;;5015305;28;20022;-74
2023/05/13 01:15:25;;;;;;;1999.90;999.90;;;10.20;99.90;;;;;;5014701;28;20030;-77
2023/05/13 01:17:56;;;;;;;1999.90;999.90;;;10.20;99.90;;;;;;5015384;28;20045;-73
2023/05/13 01:20:23;;;;;;;1999.90;999.90;;;10.20;99.90;;;;;;5015203;28;20104;-77
2023/05/13 01:22:48;;;;;;;1999.90;999.90;;;10.20;99.90;;;;;;5015732;28;20033;-73
2023/05/13 01:25:14;;;;;;;1999.90;999.90;;;10.20;99.90;;;;;;5014238;28;20034;-77
2023/05/13 01:27:40;;;;;;;1999.90;999.90;;;10.20;99.90;;;;;;5013958;28;20025;-77
2023/05/13 01:30:07;;;;;;;1999.90;999.90;;;10.20;99.90;;;;;;5015212;28;20469;-77
2023/05/13 01:32:34;;;;;;;1999.90;999.90;;;10.20;99.90;;;;;;5013967;28;20029;-77
2023/05/13 01:35:00;;;;;;;1999.90;999.90;;;10.10;99.90;;;;;;5015242;28;20113;-73
2023/05/13 01:37:27;;;;;;;1999.90;999.90;;;10.10;99.90;;;;;;5014935;28;20021;-73
2023/05/13 01:39:53;;;;;;;1999.90;999.90;;;10.00;99.90;;;;;;5014790;28;20113;-73
2023/05/13 01:42:18;;;;;;;1999.90;999.90;;;10.00;99.90;;;;;;5015088;28;20101;-77
2023/05/13 01:44:44;;;;;;;1999.90;999.90;;;10.00;99.90;;;;;;5020423;28;20462;-77
2023/05/13 01:47:10;;;;;;;1999.90;999.90;;;10.00;99.90;;;;;;5034315;28;20083;-73
2023/05/13 01:49:35;;;;;;;1999.90;999.90;;;10.00;99.90;;;;;;5033270;28;20101;-73
2023/05/13 01:52:03;;;;;;;1999.90;999.90;;;9.90;99.90;;;;;;5034498;28;20045;-73
2023/05/13 01:54:29;;;;;;;1999.90;999.90;;;9.90;99.90;;;;;;5033977;28;20468;-76
2023/05/13 01:56:54;;;;;;;1999.90;999.90;;;9.90;99.90;;;;;;5033991;28;20045;-77
2023/05/13 01:59:20;;;;;;;1999.90;999.90;;;9.80;99.90;;;;;;5034534;28;20103;-77
2023/05/13 02:01:46;;;;;;;1999.90;999.90;;;9.80;99.90;;;;;;5033914;28;20108;-73
2023/05/13 02:04:12;;;;;;;1999.90;999.90;;;9.80;99.90;;;;;;5034113;28;20519;-73
2023/05/13 02:06:37;;;;;;;1999.90;999.90;;;9.70;99.90;;;;;;5033696;28;20100;-73
2023/05/13 02:09:03;;;;;;;1999.90;999.90;;;9.70;99.90;;;;;;5033764;28;20412;-73
2023/05/13 02:11:29;;;;;;;1999.90;999.90;;;9.70;99.90;;;;;;5032805;28;20061;-77
2023/05/13 02:13:54;;;;;;;1999.90;999.90;;;9.70;99.90;;;;;;5033859;28;20041;-73
2023/05/13 02:16:21;;;;;;;1999.90;999.90;;;9.70;99.90;;;;;;5034029;28;20026;-73
2023/05/13 02:18:46;;;;;;;1999.90;999.90;;;9.70;99.90;;;;;;5033327;28;20025;-77
2023/05/13 02:21:12;;;;;;;1999.90;999.90;;;9.60;99.90;;;;;;5032561;28;20163;-73
2023/05/13 02:23:38;;;;;;;1999.90;999.90;;;9.60;99.90;;;;;;5034210;28;20029;-73
2023/05/13 02:26:03;;;;;;;1999.90;999.90;;;9.60;99.90;;;;;;5033727;28;20025;-77
2023/05/13 02:28:29;;;;;;;1999.90;999.90;;;9.60;99.90;;;;;;5033767;28;20038;-73
2023/05/13 02:30:54;;;;;;;1999.90;999.90;;;9.70;99.90;;;;;;5033641;28;20063;-73
2023/05/13 02:33:20;;;;;;;1999.90;999.90;;;9.60;99.90;;;;;;5032777;28;20147;-77
2023/05/13 02:35:46;;;;;;;1999.90;999.90;;;9.60;99.90;;;;;;5049049;28;20029;-77
2023/05/13 02:38:11;;;;;;;1999.90;999.90;;;9.60;99.90;;;;;;5032572;28;20026;-73
2023/05/13 02:40:37;;;;;;;1999.90;999.90;;;9.60;99.90;;;;;;5033493;28;20104;-73
2023/05/13 02:43:03;;;;;;;1999.90;999.90;;;9.60;99.90;;;;;;5033769;28;20516;-73
2023/05/13 02:45:29;;;;;;;1999.90;999.90;;;9.60;99.90;;;;;;5033317;28;20056;-73
2023/05/13 02:47:55;;;;;;;1999.90;999.90;;;9.60;99.90;;;;;;5033253;28;20118;-77
2023/05/13 02:50:20;;;;;;;1999.90;999.90;;;9.50;99.90;;;;;;5033094;28;20087;-77
2023/05/13 02:52:46;;;;;;;1999.90;999.90;;;9.60;99.90;;;;;;5033187;28;20101;-73
2023/05/13 02:55:12;;;;;;;1999.90;999.90;;;9.50;99.90;;;;;;5033294;28;20069;-73
2023/05/13 02:57:38;;;;;;;1999.90;999.90;;;9.40;99.90;;;;;;5033300;28;20100;-77
2023/05/13 03:00:05;;;;;;;1999.90;999.90;;;9.40;99.90;;;;;;5048353;28;20435;-76
2023/05/13 03:02:32;;;;;;;1999.90;999.90;;;9.40;99.90;;;;;;5031758;28;20116;-77
2023/05/13 03:04:57;;;;;;;1999.90;999.90;;;9.40;99.90;;;;;;5033186;28;20437;-77
2023/05/13 03:07:23;;;;;;;1999.90;999.90;;;9.40;99.90;;;;;;5033201;28;20117;-73
2023/05/13 03:09:49;;;;;;;1999.90;999.90;;;9.40;99.90;;;;;;5013873;28;20029;-73
2023/05/13 03:12:15;;;;;;;1999.90;999.90;;;9.40;99.90;;;;;;5013275;28;20052;-73
2023/05/13 03:14:43;;;;;;;1999.90;999.90;;;9.40;99.90;;;;;;5013318;28;20542;-77
2023/05/13 03:17:08;;;;;;;1999.90;999.90;;;9.30;99.90;;;;;;5012972;28;20056;-73
2023/05/13 03:19:36;;;;;;;1999.90;999.90;;;9.30;99.90;;;;;;5012977;28;20026;-73
2023/05/13 03:22:02;;;;;;;1999.90;999.90;;;9.30;99.90;;;;;;5013093;28;20485;-73
2023/05/13 03:24:28;;;;;;;1999.90;999.90;;;9.30;99.90;;;;;;5013293;28;20022;-76
2023/05/13 03:26:54;;;;;;;1999.90;999.90;;;9.20;99.90;;;;;;5013147;28;20037;-76
2023/05/13 03:29:20;;;;;;;1999.90;999.90;;;9.20;99.90;;;;;;5013177;28;20058;-76
2023/05/13 03:31:47;;;;;;;1999.90;999.90;;;9.20;99.90;;;;;;5013482;28;20084;-77
2023/05/13 03:34:13;;;;;;;1999.90;999.90;;;9.20;99.90;;;;;;5012456;28;20132;-73
2023/05/13 03:36:38;;;;;;;1999.90;999.90;;;9.10;99.90;;;;;;5012931;28;20029;-73
2023/05/13 03:39:04;;;;;;;1999.90;999.90;;;9.10;99.90;;;;;;5013015;28;20021;-77
2023/05/13 03:41:29;;;;;;;1999.90;999.90;;;9.10;99.90;;;;;;5013129;28;20030;-77
2023/05/13 03:43:55;;;;;;;1999.90;999.90;;;9.00;99.90;;;;;;5013221;28;20041;-76
2023/05/13 03:46:21;;;;;;;1999.90;999.90;;;9.00;99.90;;;;;;5012965;28;20061;-73
2023/05/13 03:48:48;;;;;;;1999.90;999.90;;;9.00;99.90;;;;;;5012752;28;20068;-76
2023/05/13 03:51:13;;;;;;;1999.90;999.90;;;9.00;99.90;;;;;;5012669;28;20535;-73
2023/05/13 03:53:39;;;;;;;1999.90;999.90;;;9.00;99.90;;;;;;5023933;28;20025;-77
2023/05/13 03:56:05;;;;;;;1999.90;999.90;;;9.00;99.90;;;;;;5047809;28;20037;-77
2023/05/13 03:58:31;;;;;;;1999.90;999.90;;;9.10;99.90;;;;;;5032682;28;20101;-73
2023/05/13 04:00:56;;;;;;;1999.90;999.90;;;9.20;99.90;;;;;;5032484;28;20468;-73
2023/05/13 04:03:22;;;;;;;1999.90;999.90;;;9.30;99.90;;;;;;5032541;28;20033;-76
2023/05/13 04:05:48;;;;;;;1999.90;999.90;;;9.40;99.90;;;;;;5032706;28;20029;-73
2023/05/13 04:08:14;;;;;;;1999.90;999.90;;;9.40;99.90;;;;;;5026601;28;20026;-77
2023/05/13 04:10:40;;;;;;;1999.90;999.90;;;9.50;99.90;;;;;;5012853;28;20164;-73
2023/05/13 04:13:06;;;;;;;1999.90;999.90;;;9.50;99.90;;;;;;5012687;28;20529;-73
2023/05/13 04:15:32;;;;;;;1999.90;999.90;;;9.50;99.90;;;;;;5012647;28;20425;-77
2023/05/13 04:17:58;;;;;;;1999.90;999.90;;;9.50;99.90;;;;;;5012700;28;20025;-77
2023/05/13 04:20:23;;;;;;;1999.90;999.90;;;9.50;99.90;;;;;;5012851;28;20026;-77
2023/05/13 04:22:49;;;;;;;1999.90;999.90;;;9.50;99.90;;;;;;5011762;28;20103;-77
2023/05/13 04:25:15;;;;;;;1999.90;999.90;;;9.50;99.90;;;;;;5012602;28;20033;-73
2023/05/13 04:27:40;;;;;;;1999.90;999.90;;;9.60;99.90;;;;;;5012622;28;20030;-73
2023/05/13 04:30:07;;;;;;;1999.90;999.90;;;9.60;99.90;;;;;;5014914;28;20385;-77
2023/05/13 04:32:32;;;;;;;1999.90;999.90;;;9.70;99.90;;;;;;5020132;28;20088;-73
2023/05/13 04:34:58;;;;;;;1999.90;999.90;;;9.70;99.90;;;;;;5035014;28;20030;-73
2023/05/13 04:37:24;;;;;;;1999.90;999.90;;;9.80;99.90;;;;;;5035636;28;20436;-73
2023/05/13 04:39:50;;;;;;;1999.90;999.90;;;9.80;99.90;;;;;;5036111;28;20391;-73
2023/05/13 04:42:16;;;;;;;1999.90;999.90;;;9.90;99.90;;;;;;5035644;28;20025;-73
2023/05/13 04:44:42;;;;;;;1999.90;999.90;;;9.90;99.90;;;;;;5035145;28;20084;-77
2023/05/13 04:47:08;;;;;;;1999.90;999.90;;;10.00;99.90;;;;;;5035768;28;20033;-73
2023/05/13 04:49:34;;;;;;;1999.90;999.90;;;10.00;99.90;;;;;;5034150;28;20045;-77
2023/05/13 04:52:03;;;;;;;1999.90;999.90;;;10.10;99.90;;;;;;5035377;28;20513;-77
2023/05/13 04:54:29;;;;;;;1999.90;999.90;;;10.10;99.90;;;;;;5035301;28;20116;-77
2023/05/13 04:56:55;;;;;;;1999.90;999.90;;;10.10;99.90;;;;;;5035451;28;20160;-77
2023/05/13 04:59:21;;;;;;;1999.90;999.90;;;10.20;99.90;;;;;;5035435;28;20036;-77
2023/05/13 05:01:47;;;;;;;1999.90;999.90;;;10.20;99.90;;;;;;5034999;28;20494;-77
2023/05/13 05:04:13;;;;;;;1999.90;999.90;;;10.20;99.90;;;;;;5035414;28;20029;-73
2023/05/13 05:06:39;;;;;;;1999.90;999.90;;;10.30;99.90;;;;;;5035310;28;20511;-73
2023/05/13 05:09:04;;;;;;;1999.90;999.90;;;10.30;99.90;;;;;;5022080;28;20022;-77
2023/05/13 05:11:30;;;;;;;1999.90;999.90;;;10.30;99.90;;;;;;5015662;28;20548;-74
2023/05/13 05:13:55;;;;;;;1999.90;999.90;;;10.40;99.90;;;;;;5015327;28;20017;-77
2023/05/13 05:16:21;;;;;;;1999.90;999.90;;;10.40;99.90;;;;;;5015156;28;20037;-73
2023/05/13 05:18:47;;;;;;;1999.90;999.90;;;10.50;99.90;;;;;;5015339;28;20026;-73
2023/05/13 05:21:12;;;;;;;1999.90;999.90;;;10.50;99.90;;;;;;5015162;28;20064;-77
2023/05/13 05:23:38;;;;;;;1999.90;999.90;;;10.50;99.90;;;;;;5015605;28;20037;-73
2023/05/13 05:26:04;;;;;;;1999.90;999.90;;;10.60;99.90;;;;;;5015023;28;20091;-77
2023/05/13 05:28:30;;;;;;;1999.90;999.90;;;10.60;99.90;;;;;;5014958;28;20049;-77
2023/05/13 05:30:55;;;;;;;1999.90;999.90;;;10.60;99.90;;;;;;5015279;28;20053;-73
2023/05/13 05:33:22;;;;;;;1999.90;999.90;;;10.60;99.90;;;;;;5014927;28;20097;-73
2023/05/13 05:35:48;;;;;;;1999.90;999.90;;;10.70;99.90;;;;;;5014311;28;20037;-74
2023/05/13 05:38:13;;;;;;;1999.90;999.90;;;10.70;99.90;;;;;;5015000;28;20067;-77
2023/05/13 05:40:44;;;;;;;1999.90;999.90;;;10.70;99.90;;;;;;5014010;28;20026;-77
2023/05/13 05:43:10;;;;;;;1999.90;999.90;;;10.80;99.90;;;;;;5014935;28;20022;-77
2023/05/13 05:45:36;;;;;;;1999.90;999.90;;;10.80;99.90;;;;;;5027519;28;20053;-73
2023/05/13 05:48:02;;;;;;;1999.90;999.90;;;10.90;99.90;;;;;;5034722;28;20025;-77
2023/05/13 05:50:28;;;;;;;1999.90;999.90;;;10.90;99.90;;;;;;5034659;28;20037;-77
2023/05/13 05:52:54;;;;;;;1999.90;999.90;;;11.00;99.90;;;;;;5033881;28;20366;-73
2023/05/13 05:55:20;;;;;;;1999.90;999.90;;;11.10;99.90;;;;;;5034215;28;20044;-73
2023/05/13 05:57:46;;;;;;;1999.90;999.90;;;11.10;99.90;;;;;;5034374;28;20017;-73
2023/05/13 06:00:12;;;;;;;1999.90;999.90;;;11.20;99.90;;;;;;5032717;28;20029;-73
2023/05/13 06:02:38;;;;;;;1999.90;999.90;;;11.30;99.90;;;;;;5034414;28;20480;-77
2023/05/13 06:05:04;;;;;;;1999.90;999.90;;;11.50;99.90;;;;;;5033935;28;20056;-77
2023/05/13 06:07:30;;;;;;;1999.90;999.90;;;11.50;99.90;;;;;;5034205;28;20374;-77
2023/05/13 06:09:56;;;;;;;1999.90;999.90;;;11.60;99.90;;;;;;5014214;28;20113;-73
2023/05/13 06:12:21;;;;;;;1999.90;999.90;;;11.70;99.90;;;;;;5014467;28;20104;-73
2023/05/13 06:14:47;;;;;;;1999.90;999.90;;;11.80;99.90;;;;;;5014160;28;20440;-77
2023/05/13 06:17:16;;;;;;;1999.90;999.90;;;11.90;99.90;;;;;;5013892;28;20022;-77
2023/05/13 06:19:42;;;;;;;1999.90;999.90;;;12.00;99.90;;;;;;5014305;28;20025;-77
2023/05/13 06:22:10;;;;;;;1999.90;999.90;;;12.00;99.90;;;;;;5014087;28;20081;-74
2023/05/13 06:24:37;;;;;;;1999.90;999.90;;;12.10;99.90;;;;;;5013997;28;20068;-73
2023/05/13 06:27:04;;;;;;;1999.90;999.90;;;12.10;99.90;;;;;;5014155;28;20508;-73
2023/05/13 06:29:30;;;;;;;1999.90;999.90;;;12.20;99.90;;;;;;5013714;28;20064;-77
2023/05/13 06:31:56;;;;;;;1999.90;999.90;;;12.30;99.90;;;;;;5012718;28;20030;-74
2023/05/13 06:34:21;;;;;;;1999.90;999.90;;;12.40;99.90;;;;;;5013947;28;20049;-77
2023/05/13 06:36:47;;;;;;;1999.90;999.90;;;12.50;99.90;;;;;;5013084;28;20469;-77
2023/05/13 06:39:13;;;;;;;1999.90;999.90;;;12.70;99.90;;;;;;5014340;28;20030;-77
2023/05/13 06:41:39;;;;;;;1999.90;999.90;;;12.70;99.90;;;;;;5013717;28;20034;-74
2023/05/13 06:44:06;;;;;;;1999.90;999.90;;;12.70;99.90;;;;;;5013803;28;20041;-77
2023/05/13 06:46:32;;;;;;;1999.90;999.90;;;12.80;99.90;;;;;;5013817;28;20392;-77
2023/05/13 06:48:58;;;;;;;1999.90;999.90;;;12.70;99.90;;;;;;5013692;28;20022;-74
2023/05/13 06:51:27;;;;;;;1999.90;999.90;;;12.90;99.90;;;;;;5013564;28;20033;-73
2023/05/13 06:53:54;;;;;;;1999.90;999.90;;;13.00;99.90;;;;;;5026487;28;20025;-73
2023/05/13 06:56:21;;;;;;;1999.90;999.90;;;13.10;99.90;;;;;;5033124;28;20087;-77
2023/05/13 06:58:48;;;;;;;1999.90;999.90;;;13.10;99.90;;;;;;5033424;28;20091;-77
2023/05/13 07:01:14;;;;;;;1999.90;999.90;;;13.10;99.90;;;;;;5032889;28;20029;-74
2023/05/13 07:03:40;;;;;;;1999.90;999.90;;;13.00;99.90;;;;;;5033528;28;20030;-77
2023/05/13 07:06:06;;;;;;;1999.90;999.90;;;12.90;99.90;;;;;;5033081;28;20446;-77
2023/05/13 07:08:31;;;;;;;1999.90;999.90;;;13.00;99.90;;;;;;5024660;28;20452;-77
2023/05/13 07:10:57;;;;;;;1999.90;999.90;;;13.00;99.90;;;;;;5013539;28;20482;-77
2023/05/13 07:13:23;;;;;;;1999.90;999.90;;;13.10;99.90;;;;;;5013379;28;20030;-74
2023/05/13 07:15:49;;;;;;;1999.90;999.90;;;13.40;99.90;;;;;;5013288;28;20404;-73
2023/05/13 07:18:14;;;;;;;1999.90;999.90;;;13.40;99.90;;;;;;5013212;28;20025;-77
2023/05/13 07:20:40;;;;;;;1999.90;999.90;;;13.30;99.90;;;;;;5013195;28;20018;-77
2023/05/13 07:23:05;;;;;;;1999.90;999.90;;;13.50;99.90;;;;;;5012993;28;20030;-74
2023/05/13 07:25:31;;;;;;;1999.90;999.90;;;13.50;99.90;;;;;;5012478;28;20072;-74
2023/05/13 07:27:56;;;;;;;1999.90;999.90;;;13.70;99.90;;;;;;5013361;28;20053;-73
2023/05/13 07:30:22;;;;;;;1999.90;999.90;;;13.70;99.90;;;;;;5013090;28;20389;-74
2023/05/13 07:32:48;;;;;;;1999.90;999.90;;;13.90;99.90;;;;;;5012861;28;20152;-77
2023/05/13 07:35:15;;;;;;;1999.90;999.90;;;13.90;99.90;;;;;;5013162;28;20033;-73
2023/05/13 07:37:41;;;;;;;1999.90;999.90;;;14.00;99.90;;;;;;5028998;28;20025;-77
2023/05/13 07:40:07;;;;;;;1999.90;999.90;;;14.00;99.90;;;;;;5032917;28;20030;-77
2023/05/13 07:42:33;;;;;;;1999.90;999.90;;;14.00;99.90;;;;;;5032556;28;20022;-73
2023/05/13 07:44:59;;;;;;;1999.90;999.90;;;13.90;99.90;;;;;;5032259;28;20049;-77
2023/05/13 07:47:26;;;;;;;1999.90;999.90;;;14.00;99.90;;;;;;5032521;28;20394;-73
2023/05/13 07:49:52;;;;;;;1999.90;999.90;;;14.00;99.90;;;;;;5032608;28;20051;-77
2023/05/13 07:52:17;;;;;;;1999.90;999.90;;;14.10;99.90;;;;;;5032470;28;20029;-75
2023/05/13 07:54:43;;;;;;;1999.90;999.90;;;14.10;99.90;;;;;;5032409;28;20060;-73
2023/05/13 07:57:09;;;;;;;1999.90;999.90;;;14.30;99.90;;;;;;5032740;28;20026;-78
2023/05/13 07:59:34;;;;;;;1999.90;999.90;;;14.50;99.90;;;;;;5032853;28;20120;-77
2023/05/13 08:02:00;;;;;;;1999.90;999.90;;;14.60;99.90;;;;;;5032333;28;20026;-77
2023/05/13 08:04:25;;;;;;;1999.90;999.90;;;14.80;99.90;;;;;;5033760;28;20034;-77
2023/05/13 08:06:51;;;;;;;1999.90;999.90;;;15.00;99.90;;;;;;5036222;28;20033;-74
2023/05/13 08:09:17;;;;;;;1999.90;999.90;;;15.00;99.90;;;;;;5021548;28;20370;-74
2023/05/13 08:11:43;;;;;;;1999.90;999.90;;;15.30;99.90;;;;;;5016883;28;20022;-78
2023/05/13 08:14:08;;;;;;;1999.90;999.90;;;15.50;99.90;;;;;;5015951;28;20029;-78
2023/05/13 08:16:35;;;;;;;1999.90;999.90;;;15.70;99.90;;;;;;5016357;28;20054;-73
2023/05/13 08:19:00;;;;;;;1999.90;999.90;;;16.10;99.90;;;;;;5016497;28;20101;-74
2023/05/13 08:21:26;;;;;;;1999.90;999.90;;;16.30;99.90;;;;;;5016241;28;20113;-74
2023/05/13 08:23:52;;;;;;;1999.90;999.90;;;16.40;99.90;;;;;;5016289;28;20033;-78
2023/05/13 08:26:17;;;;;;;1999.90;999.90;;;16.30;99.90;;;;;;5015093;28;20068;-78
2023/05/13 08:28:43;;;;;;;1999.90;999.90;;;16.20;99.90;;;;;;5016139;28;20021;-78
2023/05/13 08:31:12;;;;;;;1999.90;999.90;;;16.30;99.90;;;;;;5016228;28;20626;-74
2023/05/13 08:33:38;;;;;;;1999.90;999.90;;;16.60;99.90;;;;;;5015915;28;20501;-77
2023/05/13 08:36:04;;;;;;;1999.90;999.90;;;16.90;99.90;;;;;;5016190;28;20105;-78
2023/05/13 08:38:32;;;;;;;1999.90;999.90;;;17.00;99.90;;;;;;5015327;28;20022;-74
2023/05/13 08:40:58;;;;;;;1999.90;999.90;;;17.40;99.90;;;;;;5016009;28;20424;-78
2023/05/13 08:43:27;;;;;;;1999.90;999.90;;;18.20;99.90;;;;;;5016149;28;20545;-78
2023/05/13 08:45:55;;;;;;;1999.90;999.90;;;19.10;99.90;;;;;;5029498;28;20128;-74
2023/05/13 08:48:22;;;;;;;1999.90;999.90;;;18.80;99.90;;;;;;5035590;28;20069;-74
2023/05/13 08:50:48;;;;;;;1999.90;999.90;;;18.80;99.90;;;;;;5035756;28;20025;-78
2023/05/13 08:53:16;;;;;;;1999.90;999.90;;;19.20;99.90;;;;;;5035092;28;20029;-78
2023/05/13 08:55:41;;;;;;;1999.90;999.90;;;20.90;99.90;;;;;;5035682;28;20017;-78
2023/05/13 08:58:07;;;;;;;1999.90;999.90;;;22.70;99.90;;;;;;5035285;28;20392;-75
2023/05/13 09:00:35;;;;;;;1999.90;999.90;;;25.20;99.90;;;;;;5035472;28;20029;-75
2023/05/13 09:03:01;;;;;;;1999.90;999.90;;;25.20;99.90;;;;;;5035324;28;20068;-79
2023/05/13 09:05:27;;;;;;;1999.90;999.90;;;25.60;99.90;;;;;;5035186;28;20072;-79
2023/05/13 09:07:53;;;;;;;1999.90;999.90;;;25.80;99.90;;;;;;5032252;28;20026;-74
2023/05/13 09:10:20;;;;;;;1999.90;999.90;;;25.40;99.90;;;;;;5015285;28;20026;-78
2023/05/13 09:12:50;;;;;;;1999.90;999.90;;;23.70;99.90;;;;;;5015366;28;20030;-78
2023/05/13 09:15:18;;;;;;;1999.90;999.90;;;22.40;99.90;;;;;;5014992;28;20049;-78
2023/05/13 09:17:50;;;;;;;1999.90;999.90;;;20.40;99.90;;;;;;5014873;28;20489;-78
2023/05/13 09:20:18;;;;;;;1999.90;999.90;;;18.80;99.90;;;;;;5015497;28;20022;-78
2023/05/13 09:22:47;;;;;;;1999.90;999.90;;;18.20;99.90;;;;;;5014961;28;20403;-74
2023/05/13 09:25:15;;;;;;;1999.90;999.90;;;18.70;99.90;;;;;;5015151;28;20052;-74
2023/05/13 09:27:47;;;;;;;1999.90;999.90;;;20.50;99.90;;;;;;5015258;28;20385;-75
2023/05/13 09:30:12;;;;;;;1999.90;999.90;;;23.40;99.90;;;;;;5015210;28;20101;-75
2023/05/13 09:32:39;;;;;;;1999.90;999.90;;;24.40;99.90;;;;;;5015215;28;20050;-75
2023/05/13 09:35:18;;;;;;;1999.90;999.90;;;26.60;99.90;;;;;;5014693;28;20034;-80
2023/05/13 09:37:47;;;;;;;1999.90;999.90;;;27.90;99.90;;;;;;5014728;28;20396;-79
2023/05/13 09:40:15;;;;;;;1999.90;999.90;;;27.00;99.90;;;;;;5014056;28;20076;-75
2023/05/13 09:42:45;;;;;;;1999.90;999.90;;;27.30;99.80;;;;;;5014853;28;20029;-75
2023/05/13 09:45:15;;;;;;;1999.90;999.90;;;27.40;99.90;;;;;;5014453;28;20535;-75
2023/05/13 09:47:42;;;;;;;1999.90;999.90;;;26.70;99.00;;;;;;5014517;28;20072;-79
2023/05/13 09:50:10;;;;;;;1999.90;999.90;;;23.70;99.90;;;;;;5014577;28;20441;-74
2023/05/13 09:52:37;;;;;;;1999.90;999.90;;;23.60;99.90;;;;;;5016894;28;20105;-74
2023/05/13 09:55:07;;;;;;;1999.90;999.90;;;22.20;99.90;;;;;;5034231;28;20388;-74
2023/05/13 09:57:33;;;;;;;1999.90;999.90;;;20.70;99.90;;;;;;5034193;28;20022;-78
2023/05/13 10:00:00;;;;;;;1999.90;999.90;;;19.90;99.90;;;;;;5034229;28;20071;-78
2023/05/13 10:02:27;;;;;;;1999.90;999.90;;;19.60;99.90;;;;;;5032896;28;20377;-74
2023/05/13 10:04:57;;;;;;;1999.90;999.90;;;20.00;99.90;;;;;;5034143;28;20400;-74
2023/05/13 10:07:24;;;;;;;1999.90;999.90;;;22.30;99.90;;;;;;5034137;28;20101;-78
2023/05/13 10:10:00;;;;;;;1999.90;999.90;;;21.10;99.90;;;;;;5033876;28;20397;-78
2023/05/13 10:12:27;;;;;;;1999.90;999.90;;;19.50;99.90;;;;;;5033959;28;20033;-78
2023/05/13 10:14:54;;;;;;;1999.90;999.90;;;18.30;99.90;;;;;;5034081;28;20044;-74
2023/05/13 10:17:24;;;;;;;1999.90;999.90;;;17.80;99.90;;;;;;5033932;28;20034;-73
2023/05/13 10:19:52;;;;;;;1999.90;999.90;;;17.60;99.90;;;;;;5034040;28;20029;-78
2023/05/13 10:22:28;;;;;;;1999.90;999.90;;;17.50;99.90;;;;;;5033087;28;20377;-78
2023/05/13 10:24:56;;;;;;;1999.90;999.90;;;18.30;99.90;;;;;;5031463;28;20029;-74
2023/05/13 10:27:26;;;;;;;1999.90;999.90;;;18.60;99.90;;;;;;5033914;28;20026;-78
2023/05/13 10:29:53;;;;;;;1999.90;999.90;;;19.20;99.90;;;;;;5033811;28;20029;-74
2023/05/13 10:32:20;;;;;;;1999.90;999.90;;;19.10;99.90;;;;;;5033844;28;20034;-74
2023/05/13 10:34:47;;;;;;;1999.90;999.90;;;19.00;99.90;;;;;;5033314;28;20025;-78
2023/05/13 10:37:36;;;;;;;1999.90;999.90;;;18.40;99.90;;;;;;5032038;28;20433;-74
2023/05/13 10:40:24;;;;;;;1999.90;999.90;;;18.00;99.90;;;;;;5031487;28;20017;-78
2023/05/13 10:43:15;;;;;;;1999.90;999.90;;;18.40;99.90;;;;;;5033786;28;20059;-74
2023/05/13 10:45:49;;;;;;;1999.90;999.90;;;19.40;99.90;;;;;;5033495;28;20048;-78
2023/05/13 10:48:16;;;;;;;1999.90;999.90;;;21.90;99.90;;;;;;5032095;28;20376;-74
2023/05/13 10:51:02;;;;;;;1999.90;999.90;;;23.90;99.90;;;;;;5033207;28;20032;-79
2023/05/13 10:53:30;;;;;;;1999.90;999.90;;;24.00;99.90;;;;;;5033262;28;20555;-79
2023/05/13 10:55:58;;;;;;;1999.90;999.90;;;25.00;99.90;;;;;;5032004;28;20084;-74
2023/05/13 10:58:32;;;;;;;1999.90;999.90;;;24.70;99.90;;;;;;5033378;28;20085;-74
2023/05/13 11:01:18;;;;;;;1999.90;999.90;;;23.70;99.90;;;;;;5033249;28;20096;-78
2023/05/13 11:03:52;;;;;;;1999.90;999.90;;;22.40;99.90;;;;;;5033420;28;20109;-78
2023/05/13 11:06:20;;;;;;;1999.90;999.90;;;21.40;99.90;;;;;;5033143;28;20025;-78
2023/05/13 11:08:50;;;;;;;1999.90;999.90;;;20.80;99.90;;;;;;5022775;28;20022;-74
2023/05/13 11:11:28;;;;;;;1999.90;999.90;;;20.10;99.90;;;;;;5013854;28;20030;-74
2023/05/13 11:14:04;;;;;;;1999.90;999.90;;;19.60;99.90;;;;;;5013306;28;20026;-78
2023/05/13 11:16:30;;;;;;;1999.90;999.90;;;19.90;99.90;;;;;;5012097;28;20122;-78
2023/05/13 11:18:55;;;;;;;1999.90;999.90;;;20.10;99.90;;;;;;5012700;28;20060;-78
2023/05/13 11:21:40;;;;;;;1999.90;999.90;;;21.00;99.90;;;;;;5013337;28;20022;-74
2023/05/13 11:24:06;;;;;;;1999.90;999.90;;;22.70;99.90;;;;;;5013339;28;20093;-75
2023/05/13 11:26:55;;;;;;;1999.90;999.90;;;22.30;99.90;;;;;;5012929;28;20108;-78
2023/05/13 11:29:37;;;;;;;1999.90;999.90;;;21.90;99.90;;;;;;5013356;28;20467;-78
2023/05/13 11:32:04;;;;;;;1999.90;999.90;;;21.30;99.90;;;;;;5013213;28;20014;-74
2023/05/13 11:34:31;;;;;;;1999.90;999.90;;;20.90;99.90;;;;;;5013163;28;20034;-74
2023/05/13 11:37:06;;;;;;;1999.90;999.90;;;21.30;99.90;;;;;;5013177;28;20101;-78
2023/05/13 11:39:32;;;;;;;1999.90;999.90;;;21.70;99.90;;;;;;5014316;28;20080;-74
2023/05/13 11:42:00;;;;;;;1999.90;999.90;;;21.40;99.90;;;;;;5016308;28;20018;-78
2023/05/13 11:44:26;;;;;;;1999.90;999.90;;;21.50;99.90;;;;;;5015151;28;20078;-78
2023/05/13 11:46:57;;;;;;;1999.90;999.90;;;21.30;99.90;;;;;;5017020;28;20064;-74
2023/05/13 11:49:29;;;;;;;1999.90;999.90;;;21.20;99.90;;;;;;5016936;28;20033;-74
2023/05/13 11:51:54;;;;;;;1999.90;999.90;;;21.10;99.90;;;;;;5016886;28;20374;-78
2023/05/13 11:54:20;;;;;;;1999.90;999.90;;;21.10;99.90;;;;;;5033440;28;20071;-74
2023/05/13 11:56:45;;;;;;;1999.90;999.90;;;20.80;99.90;;;;;;5036410;28;20475;-78
2023/05/13 11:59:13;;;;;;;1999.90;999.90;;;20.50;99.90;;;;;;5036603;28;20036;-74
2023/05/13 12:01:39;;;;;;;1999.90;999.90;;;20.00;99.90;;;;;;5036495;28;20117;-74